Time;durP1;ratioP1;P1;durP2;ratioP2;P2;SDS_P1;SDS_P2;PMS_P1;PMS_P2;Temp;Humidity;BMP_temperature;BMP_pressure;BME280_temperature;BME280_humidity;BME280_pressure;Samples;Min_cycle;Max_cycle;Signal;HPM_P1;HPM_P2
2021/05/12 00:00:13;;;;;;;30.48;18.10;;;;;;;15.94;57.30;100987.13;4990574;28;110014;-66
2021/05/12 00:02:40;;;;;;;27.17;18.25;;;;;;;15.92;57.21;100991.72;4990677;28;124071;-66
2021/05/12 00:05:10;;;;;;;30.58;18.88;;;;;;;15.90;57.26;100996.28;4990584;28;124253;-66
2021/05/12 00:07:38;;;;;;;27.67;19.73;;;;;;;15.88;57.33;100987.50;4993578;28;109685;-66
2021/05/12 00:10:08;;;;;;;30.52;19.17;;;;;;;15.87;57.31;100993.81;4991715;28;109930;-66
2021/05/12 00:12:35;;;;;;;30.92;20.02;;;;;;;15.85;57.44;100993.06;4991952;28;123261;-66
2021/05/12 00:15:05;;;;;;;29.75;19.35;;;;;;;15.82;57.34;100987.91;5007496;28;123133;-66
2021/05/12 00:17:34;;;;;;;30.63;19.10;;;;;;;15.78;57.36;100989.91;4990736;28;108163;-66
2021/05/12 00:20:05;;;;;;;26.20;18.65;;;;;;;15.75;57.35;100988.31;4990432;28;110303;-66
2021/05/12 00:22:41;;;;;;;28.02;18.65;;;;;;;15.73;57.35;100995.56;4990124;28;124409;-65
2021/05/12 00:25:10;;;;;;;27.40;18.35;;;;;;;15.70;57.42;100990.38;4991098;28;123578;-65
2021/05/12 00:27:38;;;;;;;25.83;18.45;;;;;;;15.66;57.55;100986.19;4993369;28;108759;-66
2021/05/12 00:30:08;;;;;;;27.20;18.45;;;;;;;15.63;57.42;100989.03;4992805;28;109116;-66
2021/05/12 00:32:35;;;;;;;27.27;18.83;;;;;;;15.61;57.41;100996.31;4993489;28;124027;-66
2021/05/12 00:35:04;;;;;;;30.55;19.25;;;;;;;15.59;57.32;100995.53;4992079;28;122928;-66
2021/05/12 00:37:31;;;;;;;28.10;18.90;;;;;;;15.56;57.38;100993.09;4992949;28;110038;-66
2021/05/12 00:39:58;;;;;;;25.30;17.63;;;;;;;15.54;57.48;100995.00;4993768;28;109944;-66
2021/05/12 00:42:30;;;;;;;26.15;18.25;;;;;;;15.50;57.61;100998.78;4992599;28;124034;-66
2021/05/12 00:44:57;;;;;;;26.02;17.67;;;;;;;15.46;57.49;100997.28;4990933;28;124051;-66
2021/05/12 00:47:27;;;;;;;25.17;17.27;;;;;;;15.45;57.56;101000.91;4989757;28;110388;-66
2021/05/12 00:49:54;;;;;;;26.48;16.75;;;;;;;15.41;57.47;100994.03;4991439;28;110018;-66
2021/05/12 00:52:22;;;;;;;25.23;17.10;;;;;;;15.37;57.66;101004.91;4992700;28;124293;-65
2021/05/12 00:54:50;;;;;;;31.65;16.55;;;;;;;15.34;57.68;101005.09;4991465;28;123898;-66
2021/05/12 00:57:17;;;;;;;26.10;16.48;;;;;;;15.30;57.62;101003.59;4975209;28;108851;-66
2021/05/12 00:59:46;;;;;;;23.65;17.25;;;;;;;15.29;57.75;101007.19;4990440;28;109739;-66
2021/05/12 01:02:14;;;;;;;25.38;17.52;;;;;;;15.28;57.91;101005.50;4990431;28;124138;-65
2021/05/12 01:04:42;;;;;;;29.38;17.05;;;;;;;15.28;57.90;101010.84;4989422;28;123433;-65
2021/05/12 01:07:09;;;;;;;24.55;16.88;;;;;;;15.27;57.77;101003.75;4990803;28;109076;-66
2021/05/12 01:09:36;;;;;;;26.33;17.52;;;;;;;15.28;57.88;101013.50;4988917;28;109850;-66
2021/05/12 01:12:05;;;;;;;29.15;17.70;;;;;;;15.26;57.93;101007.41;4985703;28;124209;-66
2021/05/12 01:14:32;;;;;;;27.58;17.80;;;;;;;15.25;57.86;101011.00;4991047;28;123625;-67
2021/05/12 01:16:59;;;;;;;25.50;17.88;;;;;;;15.26;57.84;101012.75;4992203;28;109302;-67
2021/05/12 01:19:27;;;;;;;28.85;17.95;;;;;;;15.23;58.07;101007.59;4992724;28;110399;-65
2021/05/12 01:21:55;;;;;;;27.55;18.77;;;;;;;15.23;58.10;101012.91;4989924;28;124023;-65
2021/05/12 01:24:23;;;;;;;29.05;18.38;;;;;;;15.21;58.17;101014.81;4992909;28;124366;-67
2021/05/12 01:26:50;;;;;;;26.95;18.50;;;;;;;15.20;58.10;101023.81;4992879;28;109181;-67
2021/05/12 01:29:20;;;;;;;29.00;19.42;;;;;;;15.17;58.04;101018.63;4991687;28;110057;-64
2021/05/12 01:31:47;;;;;;;28.95;18.50;;;;;;;15.18;58.05;101023.00;4989994;28;124836;-65
2021/05/12 01:34:18;;;;;;;26.55;18.10;;;;;;;15.19;57.97;101020.25;4990206;28;123750;-65
2021/05/12 01:36:47;;;;;;;28.92;18.63;;;;;;;15.18;58.02;101020.34;4989766;28;110074;-65
2021/05/12 01:39:16;;;;;;;29.67;19.60;;;;;;;15.19;57.89;101022.91;4990391;28;110277;-64
2021/05/12 01:41:43;;;;;;;29.70;19.63;;;;;;;15.19;58.21;101011.41;4990429;28;124260;-65
2021/05/12 01:44:11;;;;;;;28.38;18.67;;;;;;;15.20;58.18;101013.13;4990294;28;124596;-65
2021/05/12 01:46:40;;;;;;;29.52;20.15;;;;;;;15.20;58.37;101018.47;4987758;28;108949;-64
2021/05/12 01:49:08;;;;;;;27.70;20.17;;;;;;;15.21;58.40;101019.31;4988891;28;109943;-65
2021/05/12 01:51:36;;;;;;;27.77;20.35;;;;;;;15.23;58.46;101018.25;4989382;28;124392;-65
2021/05/12 01:54:07;;;;;;;34.55;21.02;;;;;;;15.24;58.40;101019.97;4989160;28;124951;-65
2021/05/12 01:56:35;;;;;;;28.67;20.85;;;;;;;15.24;58.34;101014.66;4991014;28;109245;-65
2021/05/12 01:59:04;;;;;;;32.13;22.15;;;;;;;15.26;58.47;101012.75;4988515;28;110605;-64
2021/05/12 02:01:31;;;;;;;32.35;22.65;;;;;;;15.27;58.42;101011.78;4989321;28;124898;-65
2021/05/12 02:04:06;;;;;;;34.30;23.00;;;;;;;15.27;58.24;101003.75;4990418;28;124429;-67
2021/05/12 02:06:33;;;;;;;31.95;22.92;;;;;;;15.28;58.42;101002.81;4990722;28;109519;-65
2021/05/12 02:09:02;;;;;;;37.92;23.42;;;;;;;15.32;58.49;101012.34;4989130;28;110025;-65
2021/05/12 02:11:29;;;;;;;36.92;23.52;;;;;;;15.32;58.46;101007.00;4990658;28;123658;-65
2021/05/12 02:13:57;;;;;;;30.77;23.35;;;;;;;15.35;58.80;101012.16;4991658;28;124005;-65
2021/05/12 02:16:24;;;;;;;35.00;23.63;;;;;;;15.36;58.66;101013.88;4990262;28;111815;-65
2021/05/12 02:18:52;;;;;;;33.25;23.40;;;;;;;15.37;58.55;101020.94;4989432;28;109571;-65
2021/05/12 02:21:19;;;;;;;33.38;23.90;;;;;;;15.37;58.48;101015.59;4989806;28;123507;-65
2021/05/12 02:23:46;;;;;;;34.20;23.23;;;;;;;15.36;58.53;101019.19;4990525;28;123613;-65
2021/05/12 02:26:13;;;;;;;33.45;23.77;;;;;;;15.36;58.73;101013.88;4993900;28;110315;-65
2021/05/12 02:28:40;;;;;;;32.05;23.90;;;;;;;15.36;58.65;101013.88;4995159;28;109784;-65
2021/05/12 02:31:08;;;;;;;32.03;21.83;;;;;;;15.37;58.63;101015.59;4994136;28;123183;-65
2021/05/12 02:33:35;;;;;;;30.67;22.65;;;;;;;15.37;58.60;101015.59;4992582;28;123973;-66
2021/05/12 02:36:02;;;;;;;32.17;22.55;;;;;;;15.38;58.59;101017.28;4991978;28;109336;-66
2021/05/12 02:38:30;;;;;;;28.35;21.67;;;;;;;15.40;58.50;101011.03;4992584;28;110093;-66
2021/05/12 02:40:57;;;;;;;33.80;21.40;;;;;;;15.41;58.56;101020.72;4992634;28;124006;-66
2021/05/12 02:43:24;;;;;;;36.95;21.92;;;;;;;15.43;58.41;101018.84;5007614;23;124126;-70
2021/05/12 02:45:51;;;;;;;34.28;22.27;;;;;;;15.43;58.34;101013.50;4993896;28;108017;-70
2021/05/12 02:48:18;;;;;;;35.53;22.17;;;;;;;15.43;58.33;101025.03;4992397;28;109727;-70
2021/05/12 02:50:45;;;;;;;36.03;23.23;;;;;;;15.43;58.39;101025.03;4993621;28;123821;-70
2021/05/12 02:53:13;;;;;;;32.28;21.40;;;;;;;15.44;58.33;101025.88;4990800;28;124126;-70
2021/05/12 02:55:40;;;;;;;27.20;20.67;;;;;;;15.43;58.30;101024.19;4994048;28;108427;-70
2021/05/12 02:58:08;;;;;;;31.15;21.95;;;;;;;15.43;58.33;101021.50;4992795;28;110002;-70
2021/05/12 03:00:39;;;;;;;31.73;21.35;;;;;;;15.43;58.28;101013.50;4992621;28;125023;-70
2021/05/12 03:03:07;;;;;;;30.58;20.90;;;;;;;15.43;58.30;101021.50;4990212;28;125605;-70
2021/05/12 03:05:35;;;;;;;32.00;21.77;;;;;;;15.43;58.21;101018.84;5005871;28;108482;-71
2021/05/12 03:08:02;;;;;;;33.38;21.90;;;;;;;15.42;58.21;101017.97;4994225;28;110328;-70
2021/05/12 03:10:33;;;;;;;32.83;21.17;;;;;;;15.43;58.14;101021.50;4995025;28;124648;-70
2021/05/12 03:13:04;;;;;;;33.92;21.67;;;;;;;15.41;58.02;101026.06;4994953;28;123887;-70
2021/05/12 03:15:32;;;;;;;29.27;20.05;;;;;;;15.42;58.07;101022.44;4992885;28;110400;-70
2021/05/12 03:18:01;;;;;;;29.92;21.42;;;;;;;15.41;58.17;101020.72;4994521;28;110122;-70
2021/05/12 03:20:29;;;;;;;27.02;19.60;;;;;;;15.38;57.88;101006.63;4992364;28;124168;-70
2021/05/12 03:22:56;;;;;;;29.17;19.85;;;;;;;15.37;58.01;101010.25;4994756;28;124150;-70
2021/05/12 03:25:25;;;;;;;29.13;20.33;;;;;;;15.38;58.04;101017.28;4994957;28;109555;-70
2021/05/12 03:27:53;;;;;;;30.17;20.42;;;;;;;15.37;57.97;101015.59;4989558;28;109665;-70
2021/05/12 03:30:34;;;;;;;32.20;20.65;;;;;;;15.35;57.79;101012.16;4992492;28;124402;-70
2021/05/12 03:33:02;;;;;;;29.98;21.27;;;;;;;15.35;57.81;101017.50;4992255;28;123844;-70
2021/05/12 03:35:30;;;;;;;31.75;20.52;;;;;;;15.35;57.76;101022.84;4994077;28;109300;-70
2021/05/12 03:37:57;;;;;;;29.23;20.58;;;;;;;15.31;57.76;101026.66;4994921;28;109848;-70
2021/05/12 03:40:27;;;;;;;29.13;21.08;;;;;;;15.28;57.84;101021.50;4991263;28;124033;-70
2021/05/12 03:42:55;;;;;;;36.05;22.27;;;;;;;15.28;57.78;101021.50;4993303;28;123942;-70
2021/05/12 03:45:23;;;;;;;34.75;21.42;;;;;;;15.27;57.83;101030.44;4993263;28;109025;-70
2021/05/12 03:47:51;;;;;;;33.25;21.58;;;;;;;15.27;57.90;101025.09;4991023;28;110224;-70
2021/05/12 03:50:19;;;;;;;33.03;21.92;;;;;;;15.25;57.91;101035.03;4990305;28;124112;-70
2021/05/12 03:52:46;;;;;;;33.30;20.75;;;;;;;15.24;57.99;101024.44;4991892;28;123913;-70
2021/05/12 03:55:15;;;;;;;31.17;21.33;;;;;;;15.23;58.01;101034.25;4988572;28;113233;-70
2021/05/12 03:57:43;;;;;;;32.80;22.02;;;;;;;15.23;58.03;101039.59;4991467;28;114126;-70
2021/05/12 04:00:12;;;;;;;30.60;21.77;;;;;;;15.22;57.97;101032.56;4984992;28;124455;-70
2021/05/12 04:02:42;;;;;;;31.50;21.08;;;;;;;15.21;57.97;101041.50;5006925;28;123139;-70
2021/05/12 04:05:10;;;;;;;33.85;21.30;;;;;;;15.19;58.07;101032.75;4989832;28;115416;-70
2021/05/12 04:07:38;;;;;;;30.77;21.77;;;;;;;15.19;58.08;101038.94;5006156;28;115027;-70
2021/05/12 04:10:06;;;;;;;29.58;20.98;;;;;;;15.19;58.03;101048.75;4989788;28;124201;-69
2021/05/12 04:12:34;;;;;;;30.65;21.15;;;;;;;15.20;58.02;101050.47;4989167;28;123864;-70
2021/05/12 04:15:01;;;;;;;30.80;21.15;;;;;;;15.20;58.16;101055.81;4974743;28;113499;-70
2021/05/12 04:17:28;;;;;;;33.38;21.65;;;;;;;15.21;57.84;101048.66;4990912;28;114878;-70
2021/05/12 04:19:55;;;;;;;33.80;21.55;;;;;;;15.20;58.21;101047.81;4988102;28;124727;-70
2021/05/12 04:22:27;;;;;;;32.15;21.73;;;;;;;15.20;58.15;101039.81;4972963;28;122798;-70
2021/05/12 04:24:54;;;;;;;28.95;21.50;;;;;;;15.22;58.11;101048.56;4990917;28;114424;-70
2021/05/12 04:27:21;;;;;;;37.42;21.65;;;;;;;15.23;58.20;101044.94;4988958;28;113108;-70
2021/05/12 04:29:49;;;;;;;31.00;21.70;;;;;;;15.23;58.17;101044.94;4988870;28;124119;-70
2021/05/12 04:32:16;;;;;;;29.20;20.67;;;;;;;15.24;58.22;101046.66;4989666;28;123959;-70
2021/05/12 04:34:46;;;;;;;35.85;22.25;;;;;;;15.24;58.34;101052.00;4990646;28;114932;-70
2021/05/12 04:37:13;;;;;;;32.40;22.15;;;;;;;15.26;58.26;101044.75;4987062;28;114394;-70
2021/05/12 04:39:40;;;;;;;33.25;21.52;;;;;;;15.29;58.33;101049.03;4991464;28;123855;-70
2021/05/12 04:42:07;;;;;;;31.85;21.92;;;;;;;15.31;58.34;101053.34;4991491;28;124115;-70
2021/05/12 04:44:34;;;;;;;33.20;22.45;;;;;;;15.34;58.32;101053.13;4989330;28;114109;-70
2021/05/12 04:47:03;;;;;;;31.65;22.55;;;;;;;15.35;58.38;101049.53;4989688;28;114067;-70
2021/05/12 04:49:30;;;;;;;33.00;22.48;;;;;;;15.40;58.48;101056.38;4990644;28;123108;-70
2021/05/12 04:51:57;;;;;;;32.97;22.83;;;;;;;15.43;58.14;101050.88;4989873;28;124860;-70
2021/05/12 04:54:25;;;;;;;33.22;22.83;;;;;;;15.45;58.47;101048.97;4984815;28;115341;-70
2021/05/12 04:56:52;;;;;;;37.83;22.70;;;;;;;15.48;58.52;101049.63;4989587;28;115499;-70
2021/05/12 04:59:21;;;;;;;30.67;22.58;;;;;;;15.52;58.63;101050.28;4988966;28;125322;-70
2021/05/12 05:01:49;;;;;;;33.15;23.35;;;;;;;15.56;58.58;101057.16;4988856;28;124093;-70
2021/05/12 05:04:17;;;;;;;35.67;23.33;;;;;;;15.58;58.69;101052.59;4990782;28;113160;-70
2021/05/12 05:06:44;;;;;;;30.58;22.92;;;;;;;15.60;58.42;101058.69;5001283;28;114587;-70
2021/05/12 05:09:11;;;;;;;39.00;23.77;;;;;;;15.64;58.48;101059.34;4990336;28;124058;-70
2021/05/12 05:11:38;;;;;;;34.88;23.90;;;;;;;15.65;58.56;101051.25;4989156;28;123889;-70
2021/05/12 05:14:06;;;;;;;32.53;22.13;;;;;;;15.67;58.54;101060.00;4989439;28;114539;-70
2021/05/12 05:16:34;;;;;;;31.17;23.00;;;;;;;15.68;58.42;101067.06;4989962;28;114092;-70
2021/05/12 05:19:01;;;;;;;33.88;23.90;;;;;;;15.69;58.46;101068.78;4988685;28;124209;-70
2021/05/12 05:21:29;;;;;;;32.10;23.75;;;;;;;15.70;58.66;101070.47;4989081;28;124015;-70
2021/05/12 05:23:56;;;;;;;38.17;23.77;;;;;;;15.71;58.38;101066.88;4989159;28;114103;-70
2021/05/12 05:26:23;;;;;;;32.70;23.63;;;;;;;15.72;58.50;101068.56;4982749;28;114256;-70
2021/05/12 05:28:50;;;;;;;34.13;24.02;;;;;;;15.72;58.36;101065.91;4986109;28;124347;-69
2021/05/12 05:31:18;;;;;;;37.55;24.38;;;;;;;15.72;58.84;101073.91;4987861;28;123937;-69
2021/05/12 05:34:03;;;;;;;34.67;24.48;;;;;;;15.72;58.53;101073.06;4992233;28;114382;-70
2021/05/12 05:36:49;;;;;;;36.00;25.58;;;;;;;15.73;58.40;101081.00;4992013;28;114805;-68
2021/05/12 05:39:37;;;;;;;35.00;24.20;;;;;;;15.73;58.34;101081.00;4990291;28;124922;-68
2021/05/12 05:42:23;;;;;;;33.92;24.73;;;;;;;15.73;58.38;101075.66;4990862;28;125221;-70
2021/05/12 05:45:09;;;;;;;34.75;23.73;;;;;;;15.73;58.38;101081.00;4991456;28;115830;-70
2021/05/12 05:47:54;;;;;;;33.38;24.88;;;;;;;15.72;58.51;101079.25;4991195;28;116044;-69
2021/05/12 05:50:41;;;;;;;;;;;;;;;15.72;58.38;101084.59;4987695;28;124792;-70
2021/05/12 05:53:26;;;;;;;35.22;24.88;;;;;;;15.76;58.37;101072.81;4990725;28;126638;-70
2021/05/12 05:56:12;;;;;;;34.05;26.23;;;;;;;15.76;58.52;101086.19;4989696;28;115148;-70
2021/05/12 05:58:58;;;;;;;34.65;26.77;;;;;;;15.75;58.76;101073.75;4988679;28;114637;-69
2021/05/12 06:01:43;;;;;;;34.28;26.27;;;;;;;15.77;58.83;101077.19;4990580;28;125073;-69
2021/05/12 06:04:10;;;;;;;33.28;25.65;;;;;;;15.79;58.95;101074.44;4987237;28;124022;-68
2021/05/12 06:06:56;;;;;;;;;;;;;;;15.81;58.56;101077.00;4995546;28;115106;-69
2021/05/12 06:09:42;;;;;;;32.28;25.45;;;;;;;15.86;58.55;101072.22;4989355;28;114804;-69
2021/05/12 06:12:28;;;;;;;34.47;24.10;;;;;;;15.88;58.68;101084.53;4989292;28;124873;-69
2021/05/12 06:15:19;;;;;;;30.40;21.92;;;;;;;15.90;58.66;101081.78;4990947;28;124494;-68
2021/05/12 06:18:09;;;;;;;26.13;18.00;;;;;;;15.94;58.44;101081.47;4981456;28;114724;-68
2021/05/12 06:20:57;;;;;;;23.77;16.63;;;;;;;16.00;58.15;101085.56;4979004;28;114600;-69
2021/05/12 06:23:43;;;;;;;25.42;16.17;;;;;;;16.04;58.04;101084.41;4991308;28;124881;-69
2021/05/12 06:26:29;;;;;;;24.25;14.23;;;;;;;16.12;58.05;101087.44;4992691;28;125200;-68
2021/05/12 06:29:15;;;;;;;20.30;13.30;;;;;;;16.23;57.74;101083.22;4977085;28;115286;-69
2021/05/12 06:32:00;;;;;;;19.60;12.02;;;;;;;16.33;57.30;101090.53;4991544;28;114763;-69
2021/05/12 06:34:46;;;;;;;20.15;11.82;;;;;;;16.42;57.00;101083.72;4992050;28;125706;-69
2021/05/12 06:37:32;;;;;;;19.67;10.98;;;;;;;16.50;56.71;101080.53;4988754;28;124602;-69
2021/05/12 06:40:17;;;;;;;19.05;11.65;;;;;;;16.60;57.07;101080.81;4992297;28;115677;-69
2021/05/12 06:42:45;;;;;;;19.85;11.93;;;;;;;16.74;56.49;101083.41;4990034;28;115242;-67
2021/05/12 06:45:13;;;;;;;18.02;10.70;;;;;;;16.84;56.05;101089.00;4988575;28;124884;-69
2021/05/12 06:47:41;;;;;;;16.85;10.32;;;;;;;16.97;56.20;101083.69;4989553;28;124211;-69
2021/05/12 06:50:09;;;;;;;17.90;9.75;;;;;;;17.12;56.06;101082.63;4988471;28;114335;-68
2021/05/12 06:52:36;;;;;;;15.15;9.20;;;;;;;17.25;55.85;101083.53;4990241;28;114274;-69
2021/05/12 06:55:04;;;;;;;15.77;8.80;;;;;;;17.39;55.00;101089.75;4988180;28;124155;-69
2021/05/12 06:57:31;;;;;;;17.33;9.05;;;;;;;17.51;54.94;101083.50;4990024;28;124063;-69
2021/05/12 06:59:58;;;;;;;17.48;8.20;;;;;;;17.63;54.39;101085.34;4991563;28;114494;-69
2021/05/12 07:02:42;;;;;;;15.98;8.50;;;;;;;17.74;54.34;101078.34;5003499;28;113457;-68
2021/05/12 07:05:14;;;;;;;14.95;8.48;;;;;;;17.87;54.35;101089.91;4988122;28;124076;-69
2021/05/12 07:07:42;;;;;;;15.70;8.55;;;;;;;18.02;54.47;101088.81;4987929;28;122815;-69
2021/05/12 07:10:11;;;;;;;17.17;8.65;;;;;;;18.18;54.08;101083.19;4991067;28;113158;-68
2021/05/12 07:12:38;;;;;;;19.58;8.23;;;;;;;18.32;53.53;101074.13;4991779;28;114119;-68
2021/05/12 07:15:08;;;;;;;17.23;7.65;;;;;;;18.45;53.48;101072.25;4992641;28;123923;-69
2021/05/12 07:17:35;;;;;;;15.80;8.18;;;;;;;18.57;53.11;101069.63;4993371;28;123873;-67
2021/05/12 07:20:04;;;;;;;16.73;8.32;;;;;;;18.68;52.92;101075.03;4992234;28;114995;-66
2021/05/12 07:22:31;;;;;;;14.82;8.45;;;;;;;18.79;52.54;101072.38;4994757;28;113981;-68
2021/05/12 07:24:59;;;;;;;14.63;8.15;;;;;;;18.90;52.19;101082.34;4993065;28;123951;-69
2021/05/12 07:27:28;;;;;;;11.48;7.40;;;;;;;19.01;52.04;101081.53;4980314;28;124675;-69
2021/05/12 07:29:55;;;;;;;13.73;7.45;;;;;;;19.08;51.93;101090.81;4991286;28;115641;-69
2021/05/12 07:32:22;;;;;;;12.45;6.72;;;;;;;19.19;51.66;101090.84;4979880;28;115396;-69
2021/05/12 07:34:51;;;;;;;16.52;6.25;;;;;;;19.33;50.98;101091.59;4993795;28;124299;-69
2021/05/12 07:37:19;;;;;;;15.70;6.32;;;;;;;19.43;50.63;101097.97;4991656;28;123815;-69
2021/05/12 07:39:47;;;;;;;15.25;6.32;;;;;;;19.50;50.14;101099.19;4992008;28;114253;-69
2021/05/12 07:42:16;;;;;;;13.75;6.53;;;;;;;19.57;50.05;101103.13;4992788;28;113187;-69
2021/05/12 07:44:43;;;;;;;11.45;5.70;;;;;;;19.64;49.64;101096.25;4992167;28;124328;-68
2021/05/12 07:47:10;;;;;;;14.10;5.47;;;;;;;19.71;49.17;101101.16;4992805;28;123978;-67
2021/05/12 07:49:38;;;;;;;12.50;4.95;;;;;;;19.75;49.33;101091.91;4991793;28;114626;-69
2021/05/12 07:52:14;;;;;;;13.75;5.65;;;;;;;19.83;48.87;101094.81;4994067;28;113914;-69
2021/05/12 07:54:42;;;;;;;13.00;4.90;;;;;;;19.93;48.56;101094.94;4991278;28;124349;-69
2021/05/12 07:57:11;;;;;;;10.85;5.32;;;;;;;20.01;48.25;101087.13;4990837;28;123726;-69
2021/05/12 07:59:38;;;;;;;12.27;5.57;;;;;;;20.08;47.94;101087.47;4992504;28;115054;-69
2021/05/12 08:02:05;;;;;;;10.20;5.28;;;;;;;20.13;47.52;101085.25;4993647;28;114948;-69
2021/05/12 08:04:33;;;;;;;10.75;4.80;;;;;;;20.18;47.16;101083.06;4994272;28;124044;-69
2021/05/12 08:07:02;;;;;;;12.82;5.05;;;;;;;20.23;47.22;101080.84;4991001;28;124042;-69
2021/05/12 08:09:30;;;;;;;9.82;4.25;;;;;;;20.32;47.59;101090.81;4987368;28;113795;-69
2021/05/12 08:11:57;;;;;;;8.43;3.75;;;;;;;20.42;47.05;101097.16;4985938;28;113012;-69
2021/05/12 08:14:24;;;;;;;12.32;3.80;;;;;;;20.50;46.61;101093.00;4990758;28;124118;-69
2021/05/12 08:16:51;;;;;;;9.15;4.15;;;;;;;20.53;45.99;101087.34;4989865;28;123926;-69
2021/05/12 08:19:19;;;;;;;9.63;4.30;;;;;;;20.53;45.31;101098.97;4992940;28;115278;-69
2021/05/12 08:21:48;;;;;;;9.70;4.20;;;;;;;20.52;45.10;101096.41;4991557;28;115040;-69
2021/05/12 08:24:15;;;;;;;9.68;4.28;;;;;;;20.52;44.75;101096.41;4990793;28;124407;-69
2021/05/12 08:26:42;;;;;;;9.02;4.10;;;;;;;20.55;44.84;101101.53;4991395;28;124392;-69
2021/05/12 08:29:10;;;;;;;8.88;4.70;;;;;;;20.59;44.68;101108.38;4975512;28;112780;-69
2021/05/12 08:31:39;;;;;;;8.85;3.67;;;;;;;20.64;44.65;101100.78;5008711;28;114391;-69
2021/05/12 08:34:09;;;;;;;7.50;3.28;;;;;;;20.65;44.38;101102.50;4988985;28;124052;-69
2021/05/12 08:36:39;;;;;;;9.77;3.70;;;;;;;20.64;44.22;101095.41;4990239;28;123098;-69
2021/05/12 08:39:10;;;;;;;10.60;3.65;;;;;;;20.66;44.39;101101.50;4991304;28;114210;-69
2021/05/12 08:41:38;;;;;;;10.60;4.18;;;;;;;20.71;44.20;101096.59;4990633;28;113929;-69
2021/05/12 08:44:10;;;;;;;11.82;3.92;;;;;;;20.76;44.27;101089.00;5003820;22;124072;-64
2021/05/12 08:46:40;;;;;;;8.13;3.10;;;;;;;20.82;43.95;101097.56;4981498;28;124248;-64
2021/05/12 08:49:09;;;;;;;12.07;3.42;;;;;;;20.87;44.12;101093.50;4986621;28;115134;-64
2021/05/12 08:51:38;;;;;;;7.90;3.47;;;;;;;20.92;43.90;101093.09;4991343;28;114489;-64
2021/05/12 08:54:11;;;;;;;9.57;4.50;;;;;;;20.97;43.84;101096.25;4991757;28;123077;-64
2021/05/12 08:56:39;;;;;;;7.32;4.00;;;;;;;20.99;43.69;101095.13;4993043;28;124331;-64
2021/05/12 08:59:06;;;;;;;11.15;4.10;;;;;;;21.02;43.67;101094.03;4991779;28;113353;-65
2021/05/12 09:01:34;;;;;;;9.20;4.43;;;;;;;21.04;43.51;101097.44;4992168;28;113919;-65
2021/05/12 09:04:03;;;;;;;7.78;3.85;;;;;;;21.08;43.59;101088.09;4991019;28;123112;-65
2021/05/12 09:06:32;;;;;;;8.77;4.13;;;;;;;21.11;43.69;101093.22;4981235;28;123976;-65
2021/05/12 09:09:00;;;;;;;8.55;3.90;;;;;;;21.18;43.67;101086.31;4992154;28;115563;-65
2021/05/12 09:11:31;;;;;;;9.55;4.43;;;;;;;21.28;44.01;101093.59;4993662;28;115358;-64
2021/05/12 09:13:59;;;;;;;10.27;4.07;;;;;;;21.37;43.69;101088.28;4991753;28;123604;-64
2021/05/12 09:16:28;;;;;;;7.22;3.28;;;;;;;21.45;42.96;101095.72;4992138;28;123050;-64
2021/05/12 09:19:03;;;;;;;9.65;3.10;;;;;;;21.49;42.75;101091.78;4991990;28;114259;-64
2021/05/12 09:21:44;;;;;;;;;;;;;;;21.53;43.91;101086.97;4992428;28;114025;-64
2021/05/12 09:24:24;;;;;;;10.10;3.30;;;;;;;21.60;42.65;101092.69;4990557;28;125084;-64
2021/05/12 09:26:54;;;;;;;10.82;3.38;;;;;;;21.63;42.30;101087.03;4994207;28;123100;-64
2021/05/12 09:29:25;;;;;;;9.18;3.25;;;;;;;21.65;42.71;101085.06;4992169;28;113230;-65
2021/05/12 09:32:06;;;;;;;8.10;3.47;;;;;;;21.73;42.31;101077.97;5007838;28;112876;-65
2021/05/12 09:34:50;;;;;;;11.90;3.70;;;;;;;21.80;42.14;101077.44;4990039;28;124136;-64
2021/05/12 09:37:33;;;;;;;7.13;3.58;;;;;;;21.80;41.76;101083.69;4991283;28;123802;-64
2021/05/12 09:40:17;;;;;;;9.50;3.15;;;;;;;21.75;41.92;101075.16;4992458;28;114622;-65
2021/05/12 09:42:57;;;;;;;6.90;3.38;;;;;;;21.74;41.84;101073.47;4995488;28;113294;-65
2021/05/12 09:45:26;;;;;;;8.07;3.42;;;;;;;21.72;40.96;101081.69;4989853;28;124175;-65
2021/05/12 09:47:58;;;;;;;7.88;3.35;;;;;;;21.65;40.86;101074.25;4991892;28;124391;-64
2021/05/12 09:50:28;;;;;;;9.52;3.53;;;;;;;21.62;41.62;101071.84;4990306;28;114588;-65
2021/05/12 09:53:00;;;;;;;7.40;3.22;;;;;;;21.66;41.81;101081.34;4994388;28;96643;-65
2021/05/12 09:55:48;;;;;;;8.60;3.53;;;;;;;21.72;41.61;101080.81;4990316;28;124744;-65
2021/05/12 09:58:22;;;;;;;8.80;3.60;;;;;;;21.82;41.86;101076.31;4989032;28;124468;-65
2021/05/12 10:00:52;;;;;;;10.93;4.10;;;;;;;21.91;41.69;101080.88;4989513;28;115275;-66
2021/05/12 10:03:24;;;;;;;9.75;3.90;;;;;;;21.97;41.18;101080.34;4994227;28;114930;-64
2021/05/12 10:05:57;;;;;;;8.40;3.70;;;;;;;22.00;40.70;101078.34;4989883;28;124843;-64
2021/05/12 10:08:30;;;;;;;9.73;4.25;;;;;;;22.05;40.85;101070.69;4974924;28;123053;-65
2021/05/12 10:11:03;;;;;;;11.18;3.70;;;;;;;22.08;41.12;101065.88;4991045;28;114342;-65
2021/05/12 10:13:32;;;;;;;9.43;3.67;;;;;;;22.15;41.21;101068.88;4975672;28;112926;-65
2021/05/12 10:16:00;;;;;;;9.15;3.55;;;;;;;22.27;40.28;101070.50;4984009;28;124074;-65
2021/05/12 10:18:28;;;;;;;10.50;4.18;;;;;;;22.32;40.57;101065.53;4987833;28;123114;-65
2021/05/12 10:20:59;;;;;;;11.77;3.78;;;;;;;22.35;39.89;101067.94;4988919;28;115173;-65
2021/05/12 10:23:28;;;;;;;9.05;3.60;;;;;;;22.31;39.63;101066.53;4986994;28;114075;-66
2021/05/12 10:25:58;;;;;;;9.50;3.85;;;;;;;22.29;40.06;101068.50;4988097;28;124475;-66
2021/05/12 10:28:26;;;;;;;10.68;4.03;;;;;;;22.30;40.11;101070.22;4986238;28;124281;-66
2021/05/12 10:30:55;;;;;;;11.65;4.07;;;;;;;22.39;41.13;101056.88;4988113;28;113562;-65
2021/05/12 10:33:48;;;;;;;6.78;4.15;;;;;;;22.51;40.83;101061.16;4987282;28;114272;-66
2021/05/12 10:36:21;;;;;;;8.20;2.67;;;;;;;22.62;39.79;101052.91;5001978;28;124959;-66
2021/05/12 10:38:49;;;;;;;7.20;3.65;;;;;;;22.65;39.12;101055.31;4987122;28;124194;-66
2021/05/12 10:41:50;;;;;;;9.07;4.13;;;;;;;22.61;38.86;101050.34;4974709;28;113208;-67
2021/05/12 10:44:41;;;;;;;7.55;3.70;;;;;;;22.54;38.63;101050.06;4937896;28;113422;-66
2021/05/12 10:47:14;;;;;;;9.45;3.85;;;;;;;22.50;38.22;101056.75;4992451;28;124758;-66
2021/05/12 10:49:51;;;;;;;8.40;3.38;;;;;;;22.40;38.51;101053.19;4990243;28;124573;-66
2021/05/12 10:52:19;;;;;;;8.35;3.20;;;;;;;22.30;37.97;101059.44;4985507;28;114111;-66
2021/05/12 10:54:50;;;;;;;9.23;3.00;;;;;;;22.14;37.67;101051.00;4993334;28;114368;-66
2021/05/12 10:57:51;;;;;;;8.88;3.30;;;;;;;21.96;38.26;101051.66;4989999;28;123702;-66
2021/05/12 11:00:20;;;;;;;10.45;3.08;;;;;;;21.87;38.38;101047.09;4981645;28;122810;-65
2021/05/12 11:02:50;;;;;;;10.90;2.55;;;;;;;21.90;39.48;101049.50;4992246;28;114753;-66
2021/05/12 11:05:18;;;;;;;7.40;2.53;;;;;;;21.96;38.57;101048.97;4993698;28;114091;-66
2021/05/12 11:08:20;;;;;;;7.78;2.55;;;;;;;21.97;38.46;101047.97;4993629;28;123591;-64
2021/05/12 11:10:59;;;;;;;9.52;2.60;;;;;;;21.97;38.04;101042.56;4991373;28;124761;-64
2021/05/12 11:13:31;;;;;;;9.35;2.58;;;;;;;21.93;37.61;101054.63;4991161;28;114163;-65
2021/05/12 11:16:04;;;;;;;10.18;2.50;;;;;;;21.89;38.10;101050.50;4999684;28;114379;-66
2021/05/12 11:18:34;;;;;;;7.38;2.47;;;;;;;21.91;37.54;101045.81;4991600;28;124074;-65
2021/05/12 11:21:17;;;;;;;7.22;2.25;;;;;;;21.93;38.08;101046.53;4990933;28;123934;-65
2021/05/12 11:24:00;;;;;;;8.57;2.30;;;;;;;22.03;38.38;101040.31;4994064;28;114032;-66